Dan Fighter — OVUE2 — position and weather

sailwx.info

Track history (hours):
 
Tides and Currents Weather Stations Pressure Air Temp Water Temp Dewpoint Dewpoint Depression Visibility Wind Speed Wind Dir Waves Ship Positions

Dan Fighter

Last reported at 2016-Feb-13 20:13 UTC. Time now 2016-Feb-14 12:47 UTC.
Position N 56°36' E 006°58'.

Length 64 m; draft 3.1 m.

Type: Cargo ship. MMSI: 220386978.

Date/timePositionNaut miles runAvg speedWind from/ knotsBaromVisibWave heightAir tempDewpointWater temp
2016-Feb-13 20:13N 56°36' E 006°58'6 9.3
2016-Feb-13 19:33N 56°39' E 007°07'127 9.1
2016-Feb-13 05:33N 57°45' E 010°27'8 7.9
2016-Feb-13 04:33N 57°46' E 010°42'8 7.9
2016-Feb-13 03:31N 57°38' E 010°45'13 9.1
2016-Feb-13 02:04N 57°25' E 010°45'5 9.6
2016-Feb-13 01:31N 57°20' E 010°45'84 9.1
2016-Feb-12 16:19N 56°04' E 011°47'7 8.9
2016-Feb-12 15:33N 55°57' E 011°50'5 5.1
2016-Feb-12 14:33N 55°57' E 011°59'1 0.4
2016-Feb-12 11:28N 55°58' E 012°01'0 0.0
2016-Feb-12 10:31N 55°58' E 012°01'0 0.0
2016-Feb-12 09:30N 55°58' E 012°01'0 0.0
2016-Feb-12 08:33N 55°58' E 012°01'0 0.0
2016-Feb-12 07:27N 55°58' E 012°01'0 0.0
2016-Feb-12 06:21N 55°58' E 012°01'0 0.0
2016-Feb-12 05:33N 55°58' E 012°01'0 0.0
2016-Feb-12 04:34N 55°58' E 012°01'0 0.0
2016-Feb-12 03:31N 55°58' E 012°01'0 0.0
2016-Feb-12 02:30N 55°58' E 012°01'0 0.0
2016-Feb-12 01:33N 55°58' E 012°01'0 0.0
2016-Feb-12 00:30N 55°58' E 012°01'0 0.0
2016-Feb-11 23:31N 55°58' E 012°01'0 0.0
2016-Feb-11 22:33N 55°58' E 012°01'0 0.0
2016-Feb-11 21:25N 55°58' E 012°01'0 0.0
2016-Feb-11 20:31N 55°58' E 012°01'0 0.0
2016-Feb-11 19:27N 55°58' E 012°01'0 0.0
2016-Feb-11 18:30N 55°58' E 012°01'0 0.0
2016-Feb-11 17:27N 55°58' E 012°01'0 0.0
2016-Feb-11 16:28N 55°58' E 012°01'0 0.0
2016-Feb-11 15:28N 55°58' E 012°01'0 0.0
2016-Feb-11 14:28N 55°58' E 012°01'0 0.0
2016-Feb-11 13:28N 55°58' E 012°01'0 0.0
2016-Feb-11 12:28N 55°58' E 012°01'0 0.0
2016-Feb-11 11:10N 55°58' E 012°01'0 0.0
2016-Feb-11 10:22N 55°58' E 012°01'0 0.0
2016-Feb-11 09:25N 55°58' E 012°01'0 0.0
2016-Feb-11 08:31N 55°58' E 012°01'0 0.0
2016-Feb-11 07:25N 55°58' E 012°01'0 0.0
2016-Feb-09 11:28N 55°58' E 012°01'0 0.0
2016-Feb-09 10:31N 55°58' E 012°01'0 0.0
2016-Feb-09 09:28N 55°58' E 012°01'0 0.0
2016-Feb-09 08:31N 55°58' E 012°01'0 0.0
2016-Feb-09 07:28N 55°58' E 012°01'0 0.0
2016-Feb-09 06:31N 55°58' E 012°01'0 0.0
2016-Feb-09 05:31N 55°58' E 012°01'0 0.0
2016-Feb-09 04:28N 55°58' E 012°01'0 0.0
2016-Feb-09 03:31N 55°58' E 012°01'0 0.0
2016-Feb-08 23:33N 55°58' E 012°01'69 6.8
2016-Feb-08 13:28N 56°33' E 010°14'6 5.9
2016-Feb-08 12:32N 56°28' E 010°10'4 3.8
2016-Feb-08 11:32N 56°27' E 010°03'0 0.0
2016-Feb-08 00:23N 56°28' E 010°03'0 0.0
2016-Feb-07 23:23N 56°28' E 010°03'0 0.0
2016-Feb-07 21:23N 56°28' E 010°03'0 0.0
2016-Feb-07 19:23N 56°28' E 010°03'0 0.0
2016-Feb-07 18:29N 56°28' E 010°03'0 0.0
2016-Feb-07 10:26N 56°28' E 010°03'7 3.5
2016-Feb-07 08:32N 56°31' E 010°14'5 4.8
2016-Feb-07 07:30N 56°35' E 010°17'73 5.2
2016-Feb-06 17:31N 57°47' E 010°42'107 6.7
2016-Feb-06 01:27N 57°54' E 007°21'7 8.2
2016-Feb-06 00:34N 57°56' E 007°08'9 8.7
2016-Feb-05 23:33N 57°59' E 006°53'8 8.5
2016-Feb-05 22:33N 58°02' E 006°38'8 7.9
2016-Feb-05 21:33N 58°08' E 006°27'8 8.1
2016-Feb-05 20:33N 58°13' E 006°16'8 8.1
2016-Feb-05 19:34N 58°19' E 006°05'9 8.7
2016-Feb-05 18:33N 58°25' E 005°53'8 8.3
2016-Feb-05 17:33N 58°31' E 005°41'8 7.6
2016-Feb-05 16:33N 58°37' E 005°34'8 7.6
2016-Feb-05 15:34N 58°44' E 005°28'7 7.2
2016-Feb-05 14:33N 58°51' E 005°29'8 8.5
2016-Feb-05 13:34N 58°59' E 005°33'8 8.2
2016-Feb-05 12:33N 59°07' E 005°27'7 6.9
2016-Feb-05 11:33N 59°13' E 005°20'17 8.4
2016-Feb-05 09:29N 59°30' E 005°12'9 9.3
2016-Feb-05 08:33N 59°38' E 005°19'1010.0
2016-Feb-05 07:33N 59°46' E 005°32'  
Track history (hours):
 
Tides and Currents Weather Stations Pressure Air Temp Water Temp Dewpoint Dewpoint Depression Visibility Wind Speed Wind Dir Waves Ship Positions

Dan Fighter

Last reported at 2016-Feb-13 20:13 UTC. Time now 2016-Feb-14 12:47 UTC.
Position N 56°36' E 006°58'.

Length 64 m; draft 3.1 m.

Type: Cargo ship. MMSI: 220386978.

Date/timePositionNaut miles runAvg speedWind from/ knotsBaromVisibWave heightAir tempDewpointWater temp
2016-Feb-13 20:13N 56°36' E 006°58'6 9.3
2016-Feb-13 19:33N 56°39' E 007°07'127 9.1
2016-Feb-13 05:33N 57°45' E 010°27'8 7.9
2016-Feb-13 04:33N 57°46' E 010°42'8 7.9
2016-Feb-13 03:31N 57°38' E 010°45'13 9.1
2016-Feb-13 02:04N 57°25' E 010°45'5 9.6
2016-Feb-13 01:31N 57°20' E 010°45'84 9.1
2016-Feb-12 16:19N 56°04' E 011°47'7 8.9
2016-Feb-12 15:33N 55°57' E 011°50'5 5.1
2016-Feb-12 14:33N 55°57' E 011°59'1 0.4
2016-Feb-12 11:28N 55°58' E 012°01'0 0.0
2016-Feb-12 10:31N 55°58' E 012°01'0 0.0
2016-Feb-12 09:30N 55°58' E 012°01'0 0.0
2016-Feb-12 08:33N 55°58' E 012°01'0 0.0
2016-Feb-12 07:27N 55°58' E 012°01'0 0.0
2016-Feb-12 06:21N 55°58' E 012°01'0 0.0
2016-Feb-12 05:33N 55°58' E 012°01'0 0.0
2016-Feb-12 04:34N 55°58' E 012°01'0 0.0
2016-Feb-12 03:31N 55°58' E 012°01'0 0.0
2016-Feb-12 02:30N 55°58' E 012°01'0 0.0
2016-Feb-12 01:33N 55°58' E 012°01'0 0.0
2016-Feb-12 00:30N 55°58' E 012°01'0 0.0
2016-Feb-11 23:31N 55°58' E 012°01'0 0.0
2016-Feb-11 22:33N 55°58' E 012°01'0 0.0
2016-Feb-11 21:25N 55°58' E 012°01'0 0.0
2016-Feb-11 20:31N 55°58' E 012°01'0 0.0
2016-Feb-11 19:27N 55°58' E 012°01'0 0.0
2016-Feb-11 18:30N 55°58' E 012°01'0 0.0
2016-Feb-11 17:27N 55°58' E 012°01'0 0.0
2016-Feb-11 16:28N 55°58' E 012°01'0 0.0
2016-Feb-11 15:28N 55°58' E 012°01'0 0.0
2016-Feb-11 14:28N 55°58' E 012°01'0 0.0
2016-Feb-11 13:28N 55°58' E 012°01'0 0.0
2016-Feb-11 12:28N 55°58' E 012°01'0 0.0
2016-Feb-11 11:10N 55°58' E 012°01'0 0.0
2016-Feb-11 10:22N 55°58' E 012°01'0 0.0
2016-Feb-11 09:25N 55°58' E 012°01'0 0.0
2016-Feb-11 08:31N 55°58' E 012°01'0 0.0
2016-Feb-11 07:25N 55°58' E 012°01'0 0.0
2016-Feb-09 11:28N 55°58' E 012°01'0 0.0
2016-Feb-09 10:31N 55°58' E 012°01'0 0.0
2016-Feb-09 09:28N 55°58' E 012°01'0 0.0
2016-Feb-09 08:31N 55°58' E 012°01'0 0.0
2016-Feb-09 07:28N 55°58' E 012°01'0 0.0
2016-Feb-09 06:31N 55°58' E 012°01'0 0.0
2016-Feb-09 05:31N 55°58' E 012°01'0 0.0
2016-Feb-09 04:28N 55°58' E 012°01'0 0.0
2016-Feb-09 03:31N 55°58' E 012°01'0 0.0
2016-Feb-08 23:33N 55°58' E 012°01'69 6.8
2016-Feb-08 13:28N 56°33' E 010°14'6 5.9
2016-Feb-08 12:32N 56°28' E 010°10'4 3.8
2016-Feb-08 11:32N 56°27' E 010°03'0 0.0
2016-Feb-08 00:23N 56°28' E 010°03'0 0.0
2016-Feb-07 23:23N 56°28' E 010°03'0 0.0
2016-Feb-07 21:23N 56°28' E 010°03'0 0.0
2016-Feb-07 19:23N 56°28' E 010°03'0 0.0
2016-Feb-07 18:29N 56°28' E 010°03'0 0.0
2016-Feb-07 10:26N 56°28' E 010°03'7 3.5
2016-Feb-07 08:32N 56°31' E 010°14'5 4.8
2016-Feb-07 07:30N 56°35' E 010°17'73 5.2
2016-Feb-06 17:31N 57°47' E 010°42'107 6.7
2016-Feb-06 01:27N 57°54' E 007°21'7 8.2
2016-Feb-06 00:34N 57°56' E 007°08'9 8.7
2016-Feb-05 23:33N 57°59' E 006°53'8 8.5
2016-Feb-05 22:33N 58°02' E 006°38'8 7.9
2016-Feb-05 21:33N 58°08' E 006°27'8 8.1
2016-Feb-05 20:33N 58°13' E 006°16'8 8.1
2016-Feb-05 19:34N 58°19' E 006°05'9 8.7
2016-Feb-05 18:33N 58°25' E 005°53'8 8.3
2016-Feb-05 17:33N 58°31' E 005°41'8 7.6
2016-Feb-05 16:33N 58°37' E 005°34'8 7.6
2016-Feb-05 15:34N 58°44' E 005°28'7 7.2
2016-Feb-05 14:33N 58°51' E 005°29'8 8.5
2016-Feb-05 13:34N 58°59' E 005°33'8 8.2
2016-Feb-05 12:33N 59°07' E 005°27'7 6.9
2016-Feb-05 11:33N 59°13' E 005°20'17 8.4
2016-Feb-05 09:29N 59°30' E 005°12'9 9.3
2016-Feb-05 08:33N 59°38' E 005°19'1010.0
2016-Feb-05 07:33N 59°46' E 005°32'  

Dump ship's entire track history